createdAt,value
2022-10-25T20:40:15.976Z,13.96
2022-10-25T20:42:48.276Z,13.67
2022-10-25T20:45:20.485Z,13.44
2022-10-25T20:47:54.268Z,13.25
2022-10-25T20:50:28.334Z,13.08
2022-10-25T20:53:15.677Z,12.95
2022-10-25T20:55:49.344Z,12.86
2022-10-25T20:58:25.776Z,12.78
2022-10-25T21:00:59.431Z,12.70
2022-10-25T21:03:32.873Z,12.62
2022-10-25T21:06:08.136Z,12.55
2022-10-25T21:08:40.499Z,12.46
2022-10-25T21:11:14.189Z,12.35
2022-10-25T21:13:48.356Z,12.24
2022-10-25T21:16:20.719Z,12.15
2022-10-25T21:18:52.715Z,12.10
2022-10-25T21:21:24.695Z,12.08
2022-10-25T21:23:59.473Z,12.07
2022-10-25T21:26:31.632Z,12.08
2022-10-25T21:29:03.518Z,12.09
2022-10-25T21:31:35.475Z,12.11
2022-10-25T21:34:08.702Z,12.11
2022-10-25T21:36:40.759Z,12.10
2022-10-25T21:39:12.666Z,12.09
2022-10-25T21:41:44.667Z,12.08
2022-10-25T21:44:16.714Z,12.04
2022-10-25T21:46:48.806Z,12.00
2022-10-25T21:49:20.692Z,11.90
2022-10-25T21:51:52.578Z,11.77
2022-10-25T21:54:24.922Z,11.71
2022-10-25T21:56:59.377Z,11.67
2022-10-25T21:59:31.851Z,11.67
2022-10-25T22:02:04.688Z,11.61
2022-10-25T22:04:36.880Z,11.56
2022-10-25T22:07:09.034Z,11.51
2022-10-25T22:09:41.019Z,11.50
2022-10-25T22:12:12.987Z,11.53
2022-10-25T22:14:44.944Z,11.59
2022-10-25T22:17:17.546Z,11.62
2022-10-25T22:19:49.513Z,11.63
2022-10-25T22:22:21.522Z,11.66
2022-10-25T22:24:53.439Z,11.70
2022-10-25T22:27:25.523Z,11.73
2022-10-25T22:29:57.599Z,11.73
2022-10-25T22:32:30.493Z,11.71
2022-10-25T22:35:02.690Z,11.68
2022-10-25T22:37:35.174Z,11.67
2022-10-25T22:40:11.463Z,11.68
2022-10-25T22:42:43.655Z,11.71
2022-10-25T22:45:19.090Z,11.72
2022-10-25T22:47:53.695Z,11.72
2022-10-25T22:50:25.811Z,11.72
2022-10-25T22:52:57.982Z,11.71
2022-10-25T22:55:30.058Z,11.70
2022-10-25T22:58:02.578Z,11.67
2022-10-25T23:00:39.186Z,11.63
2022-10-25T23:03:11.527Z,11.61
2022-10-25T23:05:43.905Z,11.58
2022-10-25T23:08:16.429Z,11.53
2022-10-25T23:10:50.202Z,11.52
2022-10-25T23:13:22.280Z,11.50
2022-10-25T23:15:54.485Z,11.49
2022-10-25T23:18:27.191Z,11.46
2022-10-25T23:21:00.849Z,11.42
2022-10-25T23:23:38.178Z,11.36
2022-10-25T23:29:25.832Z,11.29
2022-10-25T23:31:58.137Z,11.24
2022-10-25T23:37:43.555Z,11.22
2022-10-25T23:40:16.426Z,11.16
2022-10-25T23:42:48.550Z,11.14
2022-10-25T23:45:20.812Z,11.11
2022-10-25T23:47:52.911Z,11.06
2022-10-25T23:50:25.017Z,11.04
2022-10-25T23:52:57.067Z,11.02
2022-10-25T23:55:29.123Z,11.01
2022-10-25T23:58:01.249Z,10.98
